createdAt,value
2023-03-08T00:02:46.167Z,4.91
2023-03-08T00:07:38.138Z,4.90
2023-03-08T00:12:29.887Z,5.00
2023-03-08T00:17:21.571Z,5.07
2023-03-08T00:22:13.258Z,5.09
2023-03-08T00:27:05.066Z,5.07
2023-03-08T00:31:56.828Z,5.17
2023-03-08T00:36:48.649Z,5.20
2023-03-08T00:41:40.348Z,5.26
2023-03-08T00:46:32.208Z,5.21
2023-03-08T00:51:24.004Z,5.19
2023-03-08T00:56:16.122Z,5.20
2023-03-08T01:01:14.284Z,5.20
2023-03-08T01:06:10.299Z,5.13
2023-03-08T01:11:02.605Z,5.13
2023-03-08T01:15:54.465Z,5.16
2023-03-08T01:21:03.004Z,5.07
2023-03-08T01:26:04.282Z,5.08
2023-03-08T01:31:03.271Z,5.05
2023-03-08T01:35:55.033Z,5.01
2023-03-08T01:40:46.753Z,5.03
2023-03-08T01:46:17.938Z,5.01
2023-03-08T01:51:15.128Z,4.95
2023-03-08T01:56:13.346Z,4.93
2023-03-08T02:01:05.514Z,4.99
2023-03-08T02:05:58.080Z,5.05
2023-03-08T02:10:50.638Z,5.04
2023-03-08T02:15:42.361Z,5.04
2023-03-08T02:20:38.671Z,5.05
2023-03-08T02:25:30.417Z,5.04
2023-03-08T02:30:32.084Z,5.04
2023-03-08T02:35:23.832Z,5.07
2023-03-08T02:40:15.592Z,5.07
2023-03-08T02:45:08.152Z,5.07
2023-03-08T02:49:59.921Z,5.14
2023-03-08T02:54:51.652Z,5.11
2023-03-08T02:59:43.316Z,5.09
2023-03-08T03:04:35.040Z,5.10
2023-03-08T03:09:27.833Z,5.10
2023-03-08T03:14:19.932Z,5.09
2023-03-08T03:19:12.147Z,5.01
2023-03-08T03:24:04.061Z,4.90
2023-03-08T03:28:59.899Z,4.78
2023-03-08T03:33:52.290Z,4.78
2023-03-08T03:38:44.473Z,4.71
2023-03-08T03:43:37.378Z,4.68
2023-03-08T03:48:29.888Z,4.55
2023-03-08T03:53:21.564Z,4.52
2023-03-08T03:58:13.289Z,4.46
2023-03-08T04:03:05.072Z,4.46
2023-03-08T04:07:56.785Z,4.42
2023-03-08T04:12:49.759Z,4.47
2023-03-08T04:17:41.434Z,4.47
2023-03-08T04:22:33.227Z,4.48
2023-03-08T04:27:25.037Z,4.44
2023-03-08T04:32:16.901Z,4.45
2023-03-08T04:37:11.792Z,4.42
2023-03-08T04:42:03.739Z,4.38
2023-03-08T04:46:55.643Z,4.39
2023-03-08T04:51:47.391Z,4.23
2023-03-08T05:27:22.332Z,4.85
2023-03-08T05:32:17.925Z,4.90
2023-03-08T05:47:29.567Z,5.06
2023-03-08T05:57:32.047Z,5.12
2023-03-08T06:02:25.047Z,5.07
2023-03-08T06:12:27.856Z,5.08
2023-03-08T06:27:43.267Z,5.39
2023-03-08T08:35:34.018Z,7.66
2023-03-08T09:17:08.737Z,8.40
2023-03-08T10:10:49.462Z,9.96
2023-03-08T12:42:51.267Z,11.99
2023-03-08T15:05:32.692Z,12.86
2023-03-08T18:12:05.168Z,9.30
2023-03-08T18:27:43.939Z,9.46
2023-03-08T20:38:09.432Z,10.60
2023-03-08T21:43:26.556Z,11.13
2023-03-08T22:00:32.344Z,11.41
2023-03-08T22:05:37.759Z,11.50
